首页
METAR-TAF:

METAR-TAF

机场 :

Clayton, 新墨西哥州, 美国

纬度: 36-26-54N, 经度: 103-09-11W, 海拔: 1513米

当前天气观测

该预报发布于1小时和15分钟前的10:55 UTC
风速8节,风向西
温度 21°C
湿度 56%
气压 1017 hPa
能見度: 16.1公里
天空无云

METAR: KCAO 251055Z AUTO 26008KT 10SM CLR 21/12 A3003 RMK AO2 SLP085 T02110122

时间: 06:10 (12:10 UTC)


TAF: 丢失

超过4000个机场的气象观测和天气预报(METAR&TAF报告)。

可查询的气象台以黄色和红色小点在地图上表示。

将鼠标移到小点上方,可查看气象台名称。

然后点击查看天气观测和预报。

如需切换地图:点击带黑十字的绿色按钮放大地图;点击带横线的绿色按钮缩小地图;或者点击绿色箭头查看邻近地区的地图。


METAR-TAF: